Latest Weather Observations for Inverell RS

IDN60801

Issued at 12:42 pm EDT Thursday 24 October 2019 (issued every 10 minutes, with the page automatically refreshed every 10 minutes)

About weather observations | Map of weather stations | Latest weather observations for NSW | Other Formats
Station Details ID: 056018 Name: INVERELL RESEARCH CENTRE Lat: -29.78 Lon: 151.08 Height: 664.0 m
Data from the previous 72 hours. | See also: Recent months at Inverell RS
Date/Time
EDT
Temp
°C
App
Temp
°C
Dew
Point
°C
Rel
Hum
%
Delta-T
°C
Wind Press
QNH
hPa
Press
MSL
hPa
Rain since
9am
mm
Dir  Spd
km/h
Gust
km/h
Spd
kts
Gust
kts
24/12:30pm 26.2 22.9 4.6 25 11.2 WSW 11 17 6 9 1022.2 1020.2 0.0
24/12:00pm 25.7 22.2 5.3 27 10.7 NW 13 19 7 10 1022.6 1020.9 0.0
24/11:30am 24.7 21.1 5.0 28 10.2 WNW 13 19 7 10 1023.1 1021.2 0.0
24/11:00am 23.5 19.4 4.5 29 9.7 NNW 15 24 8 13 1023.5 1021.6 0.0
24/10:30am 23.0 20.2 5.0 31 9.3 NNW 9 17 5 9 1023.8 1021.8 0.0
24/10:00am 21.3 18.3 4.0 32 8.6 N 9 15 5 8 1024.2 1022.2 0.0
24/09:30am 20.0 16.5 3.7 34 8.0 N 11 19 6 10 1024.3 1022.3 0.0
24/09:00am 19.5 16.5 5.9 41 6.9 N 11 17 6 9 1024.3 1022.7 0.0
24/08:30am 18.4 15.8 5.9 44 6.4 N 9 15 5 8 1024.2 1022.2 0.0
24/08:00am 17.4 15.2 6.0 47 5.8 NNE 7 13 4 7 1023.9 1021.9 0.0
24/07:30am 16.0 13.7 5.0 48 5.4 SSE 6 7 3 4 1023.5 1021.6 0.0
24/07:00am 13.5 12.1 3.8 52 4.6 CALM 0 0 0 0 1023.2 1021.3 0.0
24/06:30am 13.9 11.1 5.3 56 4.2 NW 9 11 5 6 1022.7 1020.7 0.0
24/06:00am 12.7 10.0 3.6 54 4.2 WNW 7 9 4 5 1022.5 1020.8 0.0
24/05:30am 13.7 11.1 4.3 53 4.5 N 7 9 4 5 1022.1 1020.1 0.0
24/05:00am 13.8 11.7 3.9 51 4.7 NNE 4 7 2 4 1021.7 1019.8 0.0
24/04:30am 14.1 12.4 3.8 50 4.9 NNE 2 7 1 4 1021.7 1019.8 0.0
24/04:00am 14.7 12.0 3.8 48 5.2 NNW 7 9 4 5 1021.4 1019.4 0.0
24/03:30am 15.2 12.5 3.7 46 5.5 NNW 7 9 4 5 1021.7 1019.8 0.0
24/03:00am 15.6 13.0 3.4 44 5.8 NNE 6 9 3 5 1021.8 1020.2 0.0
24/02:30am 16.2 13.4 3.3 42 6.1 NNE 7 9 4 5 1022.2 1020.2 0.0
24/02:00am 16.2 13.0 3.3 42 6.1 ENE 9 11 5 6 1022.5 1020.5 0.0
24/01:30am 17.1 14.1 2.3 37 6.9 NNE 7 11 4 6 1022.7 1020.7 0.0
24/01:00am 17.1 14.0 1.1 34 7.3 N 7 9 4 5 1023.0 1021.1 0.0
24/12:30am 17.6 14.5 1.2 33 7.5 N 7 7 4 4 1023.2 1021.3 0.0
24/12:00am 18.0 14.9 1.5 33 7.6 N 7 9 4 5 1023.2 1021.7 0.0
 
Date/Time
EDT
Temp
°C
App
Temp
°C
Dew
Point
°C
Rel
Hum
%
Delta-T
°C
Wind Press
QNH
hPa
Press
MSL
hPa
Rain since
9am
mm
Dir  Spd
km/h
Gust
km/h
Spd
kts
Gust
kts
23/11:30pm 19.1 16.0 1.6 31 8.2 N 7 9 4 5 1023.4 1021.5 0.0
23/11:00pm 20.2 17.0 0.6 27 9.1 NNE 7 11 4 6 1023.4 1021.5 0.0
23/10:30pm 20.3 16.9 -0.3 25 9.4 N 7 13 4 7 1023.3 1021.4 0.0
23/10:00pm 19.5 16.8 0.0 27 8.9 S 4 9 2 5 1023.2 1021.3 0.0
23/09:30pm 21.5 18.5 1.7 27 9.5 WNW 7 11 4 6 1022.6 1020.6 0.0
23/09:00pm 22.1 18.7 1.7 26 9.8 W 9 13 5 7 1022.2 1020.5 0.0
23/08:30pm 21.4 17.9 1.1 26 9.6 WNW 9 13 5 7 1021.8 1019.9 0.0
23/08:00pm 22.0 18.5 1.1 25 9.9 WNW 9 11 5 6 1021.5 1019.5 0.0
23/07:30pm 23.6 19.6 0.7 22 10.9 W 11 13 6 7 1021.2 1019.2 0.0
23/07:00pm 23.6 20.1 -1.3 19 11.4 WNW 7 9 4 5 1020.9 1018.9 0.0
23/06:30pm 26.2 22.6 -2.4 15 13.1 WNW 7 11 4 6 1020.5 1018.5 0.0
23/06:00pm 27.6 23.5 -3.3 13 14.1 NW 9 15 5 8 1020.3 1018.7 0.0
23/05:30pm 27.6 23.6 -5.5 11 14.6 N 7 15 4 8 1020.1 1018.1 0.0
23/05:00pm 28.0 23.3 -5.2 11 14.7 SE 11 19 6 10 1020.2 1018.2 0.0
23/04:30pm 27.5 22.9 -4.4 12 14.3 ENE 11 22 6 12 1020.5 1018.5 0.0
23/04:00pm 27.5 22.7 -5.6 11 14.5 N 11 17 6 9 1020.7 1018.7 0.0
23/03:30pm 29.1 24.6 -3.2 12 15.0 N 11 20 6 11 1021.0 1019.0 0.0
23/03:00pm 27.7 22.7 -4.3 12 14.3 NNE 13 19 7 10 1021.3 1019.7 0.0
23/02:30pm 27.4 22.8 -4.5 12 14.3 S 11 19 6 10 1021.8 1019.9 0.0
23/02:00pm 26.6 22.3 -5.1 12 13.9 SSE 9 15 5 8 1022.5 1020.5 0.0
23/01:30pm 27.5 22.9 -4.4 12 14.3 ENE 11 19 6 10 1023.1 1021.2 0.0
23/01:00pm 26.2 21.6 -4.4 13 13.6 SSE 11 19 6 10 1023.5 1021.6 0.0
23/12:30pm 25.6 21.5 -2.9 15 12.9 WNW 9 15 5 8 1024.1 1022.1 0.0
23/12:00pm 24.8 20.3 -0.4 19 11.8 NW 13 19 7 10 1024.6 1023.0 0.0
23/11:30am 24.9 20.7 -1.0 18 12.1 NNW 11 17 6 9 1025.1 1023.2 0.0
23/11:00am 23.5 19.9 2.9 26 10.2 NNW 11 20 6 11 1025.7 1023.8 0.0
23/10:30am 22.4 19.8 4.0 30 9.3 N 7 17 4 9 1026.1 1024.2 0.0
23/10:00am 20.8 17.9 4.8 35 8.1 NE 9 17 5 9 1026.4 1024.5 0.0
23/09:30am 19.1 16.8 5.9 42 6.7 NE 7 13 4 7 1026.4 1024.5 0.0
23/09:00am 18.7 16.4 7.5 48 5.9 NNE 9 13 5 7 1026.3 1024.7 0.0
23/08:30am 16.9 15.3 8.6 58 4.4 E 7 9 4 5 1026.2 1024.3 0.0
23/08:00am 14.9 13.2 7.7 62 3.7 ESE 6 9 3 5 1025.8 1023.9 0.0
23/07:30am 13.4 12.0 8.9 74 2.4 NNE 6 9 3 5 1025.5 1023.5 0.0
23/07:00am 11.0 9.1 6.9 76 2.0 ESE 6 9 3 5 1025.3 1023.3 0.0
23/06:30am 11.2 9.0 7.9 80 1.7 NNW 9 13 5 7 1024.6 1022.7 0.0
23/06:00am 11.6 9.9 8.5 81 1.6 NW 7 9 4 5 1024.4 1022.8 0.0
23/05:30am 11.8 9.9 9.0 83 1.5 NW 9 11 5 6 1024.1 1022.1 0.0
23/05:00am 11.8 10.1 8.5 80 1.7 NNW 7 9 4 5 1024.0 1022.0 0.0
23/04:30am 12.8 10.9 9.1 78 1.9 NNW 9 13 5 7 1023.7 1021.7 0.0
23/04:00am 12.2 11.4 8.1 76 2.1 WNW 2 6 1 3 1023.5 1021.6 0.0
23/03:30am 13.5 11.6 9.0 74 2.4 NNW 9 11 5 6 1023.8 1021.8 0.0
23/03:00am 13.7 12.0 8.5 71 2.7 N 7 9 4 5 1023.7 1022.0 0.0
23/02:30am 14.2 12.8 9.0 71 2.7 ENE 6 9 3 5 1023.9 1021.9 0.0
23/02:00am 14.1 13.0 8.3 68 3.0 SE 4 7 2 4 1023.9 1021.9 0.0
23/01:30am 14.6 13.0 8.1 65 3.4 ESE 6 7 3 4 1024.2 1022.2 0.0
23/01:00am 15.6 13.4 7.9 60 4.0 ENE 9 13 5 7 1024.6 1022.7 0.0
23/12:30am 16.2 13.2 7.9 58 4.3 E 13 17 7 9 1024.9 1023.0 0.0
23/12:00am 16.9 14.2 7.5 54 4.9 E 11 17 6 9 1025.0 1023.4 0.0
 
Date/Time
EDT
Temp
°C
App
Temp
°C
Dew
Point
°C
Rel
Hum
%
Delta-T
°C
Wind Press
QNH
hPa
Press
MSL
hPa
Rain since
9am
mm
Dir  Spd
km/h
Gust
km/h
Spd
kts
Gust
kts
22/11:30pm 17.8 14.7 7.2 50 5.5 ENE 13 17 7 9 1025.0 1023.1 0.0
22/11:00pm 18.1 15.2 6.3 46 6.0 ENE 11 19 6 10 1024.9 1023.0 0.0
22/10:30pm 18.3 15.6 5.8 44 6.3 ENE 9 11 5 6 1024.7 1022.8 0.0
22/10:00pm 19.0 16.3 5.8 42 6.7 NE 9 13 5 7 1024.7 1022.8 0.0
22/09:30pm 20.0 16.2 6.0 40 7.2 ENE 15 24 8 13 1024.4 1022.5 0.0
22/09:00pm 21.1 15.6 5.9 37 7.8 E 24 32 13 17 1024.1 1022.5 0.0
22/08:30pm 22.2 18.3 5.2 33 8.7 ESE 15 28 8 15 1023.4 1021.5 0.0
22/08:00pm 22.6 19.4 -0.2 22 10.6 SW 6 20 3 11 1022.9 1020.9 0.0
22/07:30pm 23.6 20.5 0.0 21 11.1 WNW 6 9 3 5 1022.2 1020.2 0.0
22/07:00pm 24.7 21.4 0.3 20 11.7 WNW 7 13 4 7 1021.7 1019.8 0.0
22/06:30pm 25.6 21.7 -1.2 17 12.5 W 9 20 5 11 1021.4 1019.4 0.0
22/06:00pm 26.3 22.4 -1.5 16 13.0 WNW 9 13 5 7 1021.2 1019.5 0.0
22/05:30pm 26.6 23.0 -2.1 15 13.3 WSW 7 19 4 10 1021.0 1019.0 0.0
22/05:00pm 26.7 22.5 -1.2 16 13.2 ESE 11 26 6 14 1020.9 1018.9 0.0
22/04:30pm 27.2 22.9 -1.7 15 13.6 W 11 19 6 10 1020.9 1018.9 0.0
22/04:00pm 27.1 23.3 -0.9 16 13.3 W 9 17 5 9 1021.2 1019.2 0.0
22/03:30pm 26.6 22.7 -1.3 16 13.1 ESE 9 15 5 8 1021.5 1019.5 0.0
22/03:00pm 26.5 22.2 -1.3 16 13.0 SSW 11 19 6 10 1021.9 1020.3 0.0
22/02:30pm 26.8 21.9 -0.3 17 13.0 ESE 15 28 8 15 1022.4 1020.4 0.0
22/02:00pm 26.2 21.7 0.0 18 12.6 S 13 22 7 12 1022.9 1020.9 0.0
22/01:30pm 24.8 20.8 2.9 24 11.0 S 13 26 7 14 1023.5 1021.6 0.0
22/01:00pm 25.5 21.7 4.0 25 11.0 S 13 26 7 14 1024.1 1022.1 0.0
22/12:30pm 23.6 19.3 3.5 27 10.1 SW 15 26 8 14 1024.4 1022.5 0.0
22/12:00pm 22.3 18.0 3.4 29 9.4 S 15 22 8 12 1025.0 1023.5 0.0
22/11:30am 23.1 19.0 4.6 30 9.5 S 15 24 8 13 1025.5 1023.5 0.0
22/11:00am 20.9 17.7 4.9 35 8.1 SSW 11 19 6 10 1026.1 1024.2 0.0
22/10:30am 20.9 18.4 6.4 39 7.6 SSW 9 15 5 8 1026.4 1024.5 0.0
22/10:00am 19.8 17.7 6.5 42 6.9 E 7 13 4 7 1026.6 1024.7 0.0
22/09:30am 17.9 15.3 6.1 46 6.0 ENE 9 15 5 8 1026.7 1024.8 0.0
22/09:00am 16.8 14.2 6.0 49 5.4 ESE 9 13 5 7 1026.9 1025.3 0.0
22/08:30am 15.9 13.3 6.3 53 4.8 ESE 9 11 5 6 1026.7 1024.8 0.0
22/08:00am 15.0 13.1 6.8 58 4.1 ESE 6 9 3 5 1026.5 1024.6 0.0
22/07:30am 13.5 12.9 7.3 66 3.1 CALM 0 6 0 3 1026.3 1024.4 0.0
22/07:00am 10.7 9.8 6.1 73 2.2 CALM 0 0 0 0 1026.0 1024.1 0.0
22/06:30am 9.5 8.6 6.0 79 1.7 CALM 0 0 0 0 1025.6 1023.6 0.0
22/06:00am 9.3 8.3 5.7 78 1.7 CALM 0 4 0 2 1025.3 1023.6 0.0
22/05:30am 10.7 8.1 6.3 74 2.1 N 9 9 5 5 1025.1 1023.2 0.0
22/05:00am 10.8 8.3 6.4 74 2.1 N 9 9 5 5 1024.9 1023.0 0.0
22/04:30am 10.9 8.4 6.5 74 2.1 N 9 11 5 6 1024.8 1022.9 0.0
22/04:00am 11.3 9.4 6.6 73 2.3 NE 6 7 3 4 1024.8 1022.9 0.0
22/03:30am 11.5 9.4 6.6 72 2.4 ENE 7 11 4 6 1024.8 1022.9 0.0
22/03:00am 11.4 9.2 6.1 70 2.6 NE 7 9 4 5 1024.9 1023.3 0.0
22/02:30am 12.2 10.1 6.7 69 2.7 NE 7 9 4 5 1024.9 1023.0 0.0
22/02:00am 11.4 8.8 6.1 70 2.6 E 9 11 5 6 1025.1 1023.2 0.0
22/01:30am 11.7 9.0 5.6 66 2.9 ESE 9 11 5 6 1025.5 1023.5 0.0
22/01:00am 13.2 10.5 5.6 60 3.7 E 9 13 5 7 1025.6 1023.6 0.0
22/12:30am 14.0 11.0 6.1 59 3.9 ENE 11 17 6 9 1025.6 1023.6 0.0
22/12:00am 14.9 11.2 6.5 57 4.2 E 15 22 8 12 1025.6 1023.9 0.0
 
Date/Time
EDT
Temp
°C
App
Temp
°C
Dew
Point
°C
Rel
Hum
%
Delta-T
°C
Wind Press
QNH
hPa
Press
MSL
hPa
Rain since
9am
mm
Dir  Spd
km/h
Gust
km/h
Spd
kts
Gust
kts
21/11:30pm 15.1 11.9 5.0 51 4.9 E 11 17 6 9 1025.5 1023.5 0.0
21/11:00pm 15.6 12.6 4.0 46 5.6 ENE 9 13 5 7 1025.5 1023.5 0.0
21/10:30pm 16.8 13.1 4.2 43 6.1 ENE 13 17 7 9 1025.6 1023.6 0.0
21/10:00pm 17.6 14.1 3.5 39 6.8 ENE 11 17 6 9 1025.4 1023.4 0.0
21/09:30pm 18.0 13.6 2.7 36 7.3 E 15 17 8 9 1025.0 1023.1 0.0
21/09:00pm 19.0 14.5 2.4 33 7.9 ESE 15 22 8 12 1024.6 1023.0 0.0
21/08:30pm 19.7 16.1 0.7 28 8.8 ESE 9 13 5 7 1024.3 1022.3 0.0
21/08:00pm 19.9 16.1 -3.7 20 10.0 WSW 7 13 4 7 1023.8 1021.8 0.0
21/07:30pm 20.5 16.3 -3.9 19 10.4 WSW 9 11 5 6 1023.3 1021.4 0.0
21/07:00pm 22.3 18.5 -3.9 17 11.3 SSW 7 11 4 6 1022.9 1020.9 0.0
21/06:30pm 23.5 19.3 -3.7 16 11.9 SSW 9 20 5 11 1022.6 1020.6 0.0
21/06:00pm 24.3 20.3 -5.8 13 12.7 NW 7 11 4 6 1022.4 1020.7 0.0
21/05:30pm 25.2 20.9 -5.1 13 13.1 SW 9 17 5 9 1022.2 1020.2 0.0
21/05:00pm 24.5 19.3 -5.7 13 12.9 SSW 13 20 7 11 1022.3 1020.3 0.0
21/04:30pm 24.8 19.8 -4.5 14 12.8 WNW 13 19 7 10 1022.3 1020.3 0.0
21/04:00pm 24.1 19.7 -2.4 17 12.0 SE 11 19 6 10 1022.4 1020.4 0.0
21/03:30pm 25.4 21.1 -1.4 17 12.5 W 11 19 6 10 1022.5 1020.5 0.0
21/03:00pm 24.9 20.6 -1.8 17 12.2 W 11 20 6 11 1022.8 1021.3 0.0
21/02:30pm 23.9 20.1 -1.1 19 11.6 ESE 9 15 5 8 1023.4 1021.5 0.0
21/02:00pm 23.8 19.9 -1.2 19 11.5 N 9 17 5 9 1023.8 1021.8 0.0
21/01:30pm 22.8 18.9 -1.3 20 11.0 NNE 9 15 5 8 1024.2 1022.2 0.0
21/01:00pm 22.8 18.5 -1.3 20 11.0 SSE 11 22 6 12 1024.6 1022.7 0.0

Other formats

Comma delimited format used in spreadsheet applications
http://www.bom.gov.au/fwo/IDN60801/IDN60801.94541.axf

JavaScript Object Notation format (JSON) in row-major order
http://www.bom.gov.au/fwo/IDN60801/IDN60801.94541.json

Data quality

Most of these data are generated automatically and are frequently updated. Quality checks on data are not normally performed. It is possible for incorrect values to appear. Refer to information at About Latest Weather Observations and please check the disclaimer before using these data.